Terminal Aerodrome Forecast
Issued by NWS Wilmington, OH

Current Version | Previous Version | Graphics & Text | Print | Product List | Glossary On
Versions: 1 2 3 4 5 6 7 8 9 10 11 12 13 14 15 16 17 18
000
FTUS41 KILN 241900 AAA
TAFILN
TAF AMD
KILN 241950Z 2420/2518 23013G21KT 4SM -RA BR OVC008
      TEMPO 2420/2421 26025G35KT 2SM RA BR OVC004
     FM242100 26020G35KT P6SM -RA OVC008
     FM250300 24016G28KT P6SM VCSH OVC012
     FM251200 24012G21KT P6SM BKN020=

USA.gov is the U.S. government's official web portal to all federal, state and local government web resources and services.